METAR AND TAF INFORMATION
METAR FOR LESO
ADDS - METARS form results

(1710 UTC 22 October 2017)
Data provider http://aviationweather.gov/adds/metars/
 
METAR text: LESO 221700Z VRB03KT 7000 -RA FEW010 SCT035 BKN055 15/13 Q1029
Conditions at: LESO (SAN SEBASTIAN/FU, ES) observed 1700 UTC 22 October 2017
Temperature: 15.0°C (59°F)
Dewpoint: 13.0°C (55°F) [RH = 88%]
Pressure (altimeter): 30.38 inches Hg (1029.0 mb)
Winds: variable direction winds at 3 MPH (3 knots; 1.6 m/s)
Visibility: 4 miles (7 km)
Ceiling: 5500 feet AGL
Clouds: few clouds at 1000 feet AGL
scattered clouds at 3500 feet AGL
broken clouds at 5500 feet AGL
Weather: -RA  (light rain)

METAR text: LESO 221630Z 22006KT 200V270 9999 FEW016 SCT036 BKN055 15/13 Q1029
Conditions at: LESO (SAN SEBASTIAN/FU, ES) observed 1630 UTC 22 October 2017
Temperature: 15.0°C (59°F)
Dewpoint: 13.0°C (55°F) [RH = 88%]
Pressure (altimeter): 30.38 inches Hg (1029.0 mb)
Winds: from the SW (220 degrees) at 7 MPH (6 knots; 3.1 m/s)
Visibility: 6 or more miles (10+ km)
Ceiling: 5500 feet AGL
Clouds: few clouds at 1600 feet AGL
scattered clouds at 3600 feet AGL
broken clouds at 5500 feet AGL
Weather: no significant weather observed at this time

Forecast for: LESO (SAN SEBASTIAN/FU, ES)
Text: TAF LESO 221100Z 2212/2312 26008KT 9999 SCT020 BKN060 TX17/2215Z TN13/2307Z
Forecast period: 1200 UTC 22 October 2017 to 1200 UTC 23 October 2017
Forecast type: FROM: standard forecast or significant change
Winds: from the W (260 degrees) at 9 MPH (8 knots; 4.2 m/s)
Visibility: 6 or more miles (10+ km)
Ceiling: 6000 feet AGL
Clouds: scattered clouds at 2000 feet AGL
broken clouds at 6000 feet AGL
Weather: no significant weather forecast for this period
Text: PROB40
Forecast period: 1200 to 1800 UTC 22 October 2017
Forecast type: TEMPORARY: The following changes expected for less than half the time period
Visibility: 1.86 miles (2.99 km)
Weather: RA  (rain)

 AIRPORT MAP

 RUNWAY INFORMATION
Runway 04 Runway length 5755 ft Runway width 148 ft
Runway elevation 10 ft Runway displaced threshold 0 ft Runway heading 39
Runway 22 Runway length 5755 ft Runway width 148 ft
Runway elevation 15 ft Runway displaced threshold 0 ft Runway heading 219

 AIRPORT FREQUENCIES
Type TWR Name SAN SEBAST Frequency 119.85 MHZ

 AIRPORT NEAR NAVIGATION AIDS
Type NDB-DME Name San Sebastian Frequency 328 KHZ
Type VOR-DME Name San Sebastian Frequency 117900 KHZ







Air Nostrum Virtual © 2017

a VAG member

Policy Privacy | Rules | Powered by VAM [V2.6.2] | Customized by Jz © 2017 for Air Nostrum Virtual